Time;durP1;ratioP1;P1;durP2;ratioP2;P2;SDS_P1;SDS_P2;PMS_P1;PMS_P2;Temp;Humidity;BMP_temperature;BMP_pressure;BME280_temperature;BME280_humidity;BME280_pressure;Samples;Min_cycle;Max_cycle;Signal;HPM_P1;HPM_P2
2023/03/22 00:03:15;;;;;;;5.87;3.37;;;;;;;14.77;51.93;98617.59;7079376;28;20257;-78
2023/03/22 00:06:37;;;;;;;3.30;3.00;;;;;;;14.82;51.75;98621.22;7079638;28;20204;-78
2023/03/22 00:10:00;;;;;;;6.77;3.70;;;;;;;14.85;51.16;98614.50;7078203;28;20273;-79
2023/03/22 00:13:21;;;;;;;5.70;3.53;;;;;;;14.73;51.45;98613.69;7079316;28;20825;-77
2023/03/22 00:16:44;;;;;;;4.00;3.20;;;;;;;14.60;51.70;98612.06;7059145;28;20228;-78
2023/03/22 00:20:08;;;;;;;3.37;3.07;;;;;;;14.40;52.14;98602.59;7077795;27;20727;-79
2023/03/22 00:23:29;;;;;;;5.43;3.50;;;;;;;14.24;52.43;98606.81;7057475;27;20237;-77
2023/03/22 00:26:52;;;;;;;6.07;3.53;;;;;;;13.86;52.93;98606.31;7055666;28;20250;-78
2023/03/22 00:30:14;;;;;;;5.00;3.40;;;;;;;14.21;52.34;98599.13;7054860;28;20203;-79
2023/03/22 00:33:36;;;;;;;4.30;3.43;;;;;;;13.43;54.37;98594.84;7054976;28;20297;-77
2023/03/22 00:36:58;;;;;;;6.03;3.10;;;;;;;13.84;53.46;98591.34;7055578;28;20630;-78
2023/03/22 00:40:19;;;;;;;4.90;3.60;;;;;;;13.63;54.15;98586.47;7055092;28;20284;-78
2023/03/22 00:43:42;;;;;;;5.80;3.50;;;;;;;13.27;54.67;98576.50;7055780;28;20283;-78
2023/03/22 00:47:04;;;;;;;4.10;3.10;;;;;;;13.42;54.63;98592.34;7055927;28;20224;-78
2023/03/22 00:50:26;;;;;;;4.03;3.50;;;;;;;13.37;54.98;98598.47;7054836;28;20200;-78
2023/03/22 00:53:49;;;;;;;6.00;3.30;;;;;;;13.34;55.05;98588.06;7079233;27;20650;-79
2023/03/22 00:57:13;;;;;;;5.23;3.20;;;;;;;13.64;54.31;98583.50;7055694;27;20227;-78
2023/03/22 01:00:35;;;;;;;5.77;3.40;;;;;;;13.59;53.62;98569.84;7073783;27;20205;-78
2023/03/22 01:03:57;;;;;;;4.23;3.80;;;;;;;13.55;53.79;98576.75;7083751;27;20360;-78
2023/03/22 01:07:20;;;;;;;5.23;3.60;;;;;;;13.55;53.51;98575.91;7080948;27;20710;-78
2023/03/22 01:10:42;;;;;;;4.30;3.27;;;;;;;13.11;54.61;98547.34;7054762;28;20246;-78
2023/03/22 01:14:03;;;;;;;7.23;3.13;;;;;;;13.72;53.63;98580.47;7054946;28;20282;-78
2023/03/22 01:17:26;;;;;;;4.30;3.30;;;;;;;13.60;52.35;98524.59;7058007;28;20562;-78
2023/03/22 01:20:48;;;;;;;5.70;3.67;;;;;;;13.76;53.23;98570.81;7053771;28;20213;-78
2023/03/22 01:24:09;;;;;;;4.43;3.50;;;;;;;13.58;53.55;98559.22;7054778;28;20258;-78
2023/03/22 01:27:30;;;;;;;3.87;3.47;;;;;;;13.80;52.58;98542.22;7060803;27;20248;-79
2023/03/22 01:30:52;;;;;;;6.17;3.60;;;;;;;13.01;54.40;98559.75;7078775;27;20208;-78
2023/03/22 01:34:15;;;;;;;5.20;3.73;;;;;;;13.10;54.78;98542.19;7082535;27;20576;-78
2023/03/22 01:37:36;;;;;;;7.63;4.33;;;;;;;13.55;53.31;98549.66;7082744;27;20659;-78
2023/03/22 01:40:58;;;;;;;5.50;4.10;;;;;;;13.40;53.46;98546.53;7081822;27;20271;-78
2023/03/22 01:44:21;;;;;;;4.27;3.77;;;;;;;13.29;53.45;98544.59;7082900;27;20250;-77
2023/03/22 01:47:47;;;;;;;5.77;3.30;;;;;;;13.45;53.34;98535.84;7082564;27;20202;-80
2023/03/22 01:51:12;;;;;;;6.10;3.93;;;;;;;13.21;53.67;98536.00;7081676;27;20320;-78
2023/03/22 01:54:36;;;;;;;5.40;3.67;;;;;;;13.22;53.65;98538.44;7081898;27;20280;-78
2023/03/22 01:57:58;;;;;;;5.00;3.87;;;;;;;12.91;54.35;98530.50;7082113;27;20601;-78
2023/03/22 02:01:20;;;;;;;5.97;4.30;;;;;;;13.13;54.02;98534.41;7081744;27;20228;-78
2023/03/22 02:04:41;;;;;;;10.27;8.10;;;;;;;13.06;54.05;98530.97;7071931;27;20200;-79
2023/03/22 02:08:05;;;;;;;5.40;4.30;;;;;;;13.23;53.15;98531.97;7054338;27;20204;-78
2023/03/22 02:11:30;;;;;;;5.47;3.50;;;;;;;12.63;54.20;98515.84;7052748;28;20233;-78
2023/03/22 02:15:00;;;;;;;4.87;4.37;;;;;;;12.42;55.52;98524.38;7053741;28;20337;-77
2023/03/22 02:18:29;;;;;;;6.30;4.10;;;;;;;12.30;55.74;98521.59;7053411;28;20222;-77
2023/03/22 02:22:13;;;;;;;7.00;4.80;;;;;;;12.27;55.97;98519.34;7052013;28;20230;-78
2023/03/22 02:25:56;;;;;;;5.47;4.00;;;;;;;12.21;56.09;98514.00;7053251;28;20627;-78
2023/03/22 02:29:25;;;;;;;8.97;4.07;;;;;;;12.65;54.70;98506.47;7053239;28;20191;-78
2023/03/22 02:33:07;;;;;;;5.07;4.10;;;;;;;12.56;54.98;98510.50;7054830;27;20236;-77
2023/03/22 02:36:34;;;;;;;5.53;3.97;;;;;;;12.36;54.51;98479.31;7062331;27;20290;-78
2023/03/22 02:39:59;;;;;;;6.07;4.00;;;;;;;12.58;54.13;98518.41;7067375;27;20197;-77
2023/03/22 02:43:29;;;;;;;4.30;3.80;;;;;;;12.60;53.33;98514.44;7052730;28;20241;-79
2023/03/22 02:46:58;;;;;;;4.30;3.90;;;;;;;11.63;54.93;98466.72;7052116;28;20181;-79
2023/03/22 02:50:22;;;;;;;4.47;4.07;;;;;;;12.29;54.66;98511.84;7051866;28;20250;-79
2023/03/22 02:53:47;;;;;;;7.17;4.10;;;;;;;12.02;54.83;98496.91;7052115;28;20283;-79
2023/03/22 02:57:11;;;;;;;4.00;3.70;;;;;;;11.90;55.86;98495.16;7052847;28;20225;-78
2023/03/22 03:00:34;;;;;;;4.63;4.23;;;;;;;11.99;55.46;98508.16;7069196;27;20577;-78
2023/03/22 03:04:00;;;;;;;5.27;3.90;;;;;;;11.87;55.93;98498.31;7080897;27;20696;-79
2023/03/22 03:07:24;;;;;;;7.30;4.20;;;;;;;11.74;56.06;98510.03;7079951;27;20206;-78
2023/03/22 03:10:46;;;;;;;5.07;3.87;;;;;;;11.84;56.25;98512.25;7055497;27;20265;-78
2023/03/22 03:14:20;;;;;;;6.43;4.77;;;;;;;11.85;55.95;98505.78;7052430;28;20209;-77
2023/03/22 03:17:53;;;;;;;5.83;4.37;;;;;;;11.67;56.04;98476.00;7076591;27;20262;-78
2023/03/22 03:21:24;;;;;;;7.33;5.03;;;;;;;11.19;57.59;98505.41;7080065;27;20227;-79
2023/03/22 03:24:49;;;;;;;8.50;4.83;;;;;;;11.76;56.81;98505.22;7079920;27;20242;-78
2023/03/22 03:28:14;;;;;;;4.93;4.27;;;;;;;11.86;56.68;98513.66;7081451;27;20180;-79
2023/03/22 03:31:41;;;;;;;4.93;4.33;;;;;;;11.83;56.34;98524.09;7079622;27;20260;-77
2023/03/22 03:35:07;;;;;;;5.97;4.20;;;;;;;11.69;56.83;98520.66;7080168;27;20255;-79
2023/03/22 03:38:30;;;;;;;6.77;4.50;;;;;;;11.67;56.99;98516.53;7079539;28;20200;-82
2023/03/22 03:41:53;;;;;;;8.57;7.60;;;;;;;11.83;56.10;98526.78;7054123;28;20278;-77
2023/03/22 03:45:15;;;;;;;6.83;6.17;;;;;;;11.39;55.93;98494.47;7066301;28;20200;-77
2023/03/22 03:48:39;;;;;;;6.77;4.50;;;;;;;11.76;55.88;98517.91;7079680;28;20247;-78
2023/03/22 03:52:00;;;;;;;5.80;4.20;;;;;;;11.68;56.26;98519.00;7064977;28;20232;-77
2023/03/22 03:55:23;;;;;;;4.63;4.23;;;;;;;11.25;57.58;98520.72;7078672;27;20255;-78
2023/03/22 03:58:44;;;;;;;5.10;4.60;;;;;;;11.31;57.56;98522.56;7061971;27;20209;-77
2023/03/22 04:02:06;;;;;;;5.53;4.17;;;;;;;11.72;56.67;98520.22;7056570;28;20606;-78
2023/03/22 04:05:29;;;;;;;4.87;4.30;;;;;;;11.40;57.12;98528.53;7056844;28;20215;-78
2023/03/22 04:08:53;;;;;;;5.03;4.17;;;;;;;11.56;56.86;98528.81;7056832;28;20625;-77
2023/03/22 04:12:14;;;;;;;6.90;4.47;;;;;;;10.97;58.27;98538.28;7056220;28;20255;-77
2023/03/22 04:15:36;;;;;;;4.93;4.30;;;;;;;10.02;62.06;98538.06;7056327;28;20228;-79
2023/03/22 04:18:57;;;;;;;5.87;4.83;;;;;;;11.11;59.36;98529.91;7056690;28;20210;-77
2023/03/22 04:22:20;;;;;;;7.90;4.70;;;;;;;11.29;58.83;98527.34;7055887;28;20975;-77
2023/03/22 04:25:42;;;;;;;6.93;5.03;;;;;;;11.54;57.50;98524.69;7056160;28;20197;-76
2023/03/22 04:29:04;;;;;;;5.23;4.73;;;;;;;11.18;58.05;98533.44;7063214;27;20208;-78
2023/03/22 04:32:25;;;;;;;5.80;5.23;;;;;;;10.87;59.24;98524.44;7055511;28;20224;-78
2023/03/22 04:35:47;;;;;;;7.57;6.50;;;;;;;11.24;58.32;98521.78;7055999;28;20228;-76
2023/03/22 04:39:11;;;;;;;9.20;5.20;;;;;;;11.39;57.49;98513.38;7060325;27;20268;-78
2023/03/22 04:42:32;;;;;;;4.70;4.30;;;;;;;11.36;57.06;98520.03;7055142;28;20588;-76
2023/03/22 04:45:56;;;;;;;5.13;4.63;;;;;;;10.73;59.03;98525.50;7067181;27;20204;-77
2023/03/22 04:49:18;;;;;;;5.63;4.63;;;;;;;11.16;57.12;98532.78;7080856;27;20210;-77
2023/03/22 04:52:39;;;;;;;6.37;4.70;;;;;;;11.11;57.87;98515.59;7083105;27;20288;-77
2023/03/22 04:56:04;;;;;;;6.07;5.47;;;;;;;11.13;57.59;98516.22;7083862;27;20224;-79
2023/03/22 04:59:25;;;;;;;6.27;5.67;;;;;;;11.17;56.92;98512.84;7083229;27;20245;-78
2023/03/22 05:02:48;;;;;;;5.47;4.80;;;;;;;11.43;55.93;98504.63;7060459;27;20224;-77
2023/03/22 05:06:10;;;;;;;5.10;4.70;;;;;;;10.42;58.69;98496.59;7056133;27;20211;-79
2023/03/22 05:09:32;;;;;;;7.07;5.40;;;;;;;10.22;60.12;98503.88;7053474;28;20751;-77
2023/03/22 05:12:55;;;;;;;5.70;5.10;;;;;;;10.33;60.49;98497.03;7054332;28;20234;-78
2023/03/22 05:16:16;;;;;;;6.20;4.90;;;;;;;10.69;59.34;98490.06;7054837;28;20229;-79
2023/03/22 05:19:38;;;;;;;7.53;5.77;;;;;;;10.67;58.55;98477.81;7054290;28;20215;-78
2023/03/22 05:23:01;;;;;;;5.77;5.17;;;;;;;10.90;58.39;98478.97;7054308;28;20319;-77
2023/03/22 05:26:25;;;;;;;7.13;5.70;;;;;;;10.67;58.82;98486.75;7054800;28;20203;-78
2023/03/22 05:29:48;;;;;;;7.53;5.60;;;;;;;10.97;58.03;98471.69;7053854;28;20267;-78
2023/03/22 05:33:10;;;;;;;8.33;6.27;;;;;;;10.89;57.72;98468.41;7054858;27;20585;-78
2023/03/22 05:36:31;;;;;;;6.33;5.63;;;;;;;10.80;58.03;98462.44;7054372;28;20228;-78
2023/03/22 05:39:53;;;;;;;5.77;5.23;;;;;;;10.45;58.48;98484.56;7054577;27;20296;-79
2023/03/22 05:43:14;;;;;;;5.80;5.20;;;;;;;10.31;60.30;98494.53;7054560;28;20642;-77
2023/03/22 05:46:37;;;;;;;6.73;5.17;;;;;;;11.20;58.80;98473.81;7054542;28;20295;-78
2023/03/22 05:49:59;;;;;;;5.53;4.93;;;;;;;12.09;57.51;98478.75;7052973;28;20687;-78
2023/03/22 05:53:20;;;;;;;5.17;4.77;;;;;;;12.54;56.79;98473.91;7063122;27;20238;-78
2023/03/22 05:56:43;;;;;;;6.57;4.10;;;;;;;12.21;57.54;98482.38;7053900;28;20228;-78
2023/03/22 06:00:09;;;;;;;6.07;4.67;;;;;;;11.97;57.13;98442.72;7053311;27;20205;-78
2023/03/22 06:03:32;;;;;;;5.77;4.40;;;;;;;12.61;56.59;98474.66;7053337;28;20628;-78
2023/03/22 06:06:53;;;;;;;5.63;4.50;;;;;;;12.67;56.35;98480.00;7059923;27;20208;-79
2023/03/22 06:10:15;;;;;;;5.43;4.40;;;;;;;13.20;54.65;98474.75;7065246;27;20214;-78
2023/03/22 06:13:37;;;;;;;5.37;4.30;;;;;;;13.22;54.33;98478.09;7069702;27;20226;-78
2023/03/22 06:16:58;;;;;;;5.03;4.10;;;;;;;13.76;52.83;98486.00;7066045;27;20264;-79
2023/03/22 06:20:21;;;;;;;5.70;5.10;;;;;;;13.08;53.52;98480.13;7052027;28;20243;-77
2023/03/22 06:23:43;;;;;;;8.80;5.73;;;;;;;12.90;54.18;98482.84;7053278;28;20323;-78
2023/03/22 06:27:04;;;;;;;6.93;5.87;;;;;;;13.23;53.83;98488.66;7072740;27;20229;-76
2023/03/22 06:30:26;;;;;;;8.67;5.80;;;;;;;13.22;54.20;98499.75;7080858;27;20359;-79
2023/03/22 06:33:47;;;;;;;5.20;4.70;;;;;;;12.99;54.70;98494.22;7061558;27;20271;-79
2023/03/22 06:37:10;;;;;;;6.30;5.20;;;;;;;13.75;53.52;98484.38;7054685;28;20224;-79
2023/03/22 06:40:33;;;;;;;6.73;5.33;;;;;;;14.07;52.44;98497.38;7069448;27;20650;-78
2023/03/22 06:43:55;;;;;;;7.13;5.53;;;;;;;14.62;51.64;98503.28;7086064;27;20230;-80
2023/03/22 06:47:16;;;;;;;6.23;5.50;;;;;;;15.50;49.23;98505.41;7085064;27;20624;-80
2023/03/22 06:50:38;;;;;;;6.00;5.40;;;;;;;15.72;48.61;98494.66;7082666;27;20219;-79
2023/03/22 06:54:01;;;;;;;7.17;5.67;;;;;;;15.75;47.43;98465.06;7080949;27;20234;-81
2023/03/22 06:57:23;;;;;;;6.70;5.63;;;;;;;16.11;47.57;98502.66;7080999;27;20276;-76
2023/03/22 07:00:44;;;;;;;13.10;6.77;;;;;;;16.47;46.84;98487.75;7079259;27;20203;-79
2023/03/22 07:04:06;;;;;;;9.17;5.77;;;;;;;17.12;44.99;98499.50;7077570;27;20236;-78
2023/03/22 07:07:27;;;;;;;8.33;5.23;;;;;;;17.39;44.33;98489.53;7053437;28;20280;-81
2023/03/22 07:10:51;;;;;;;8.47;6.07;;;;;;;16.95;46.00;98494.16;7052755;28;20205;-80
2023/03/22 07:14:12;;;;;;;5.93;5.00;;;;;;;16.68;46.92;98497.88;7053531;28;20299;-79
2023/03/22 07:17:34;;;;;;;5.90;4.90;;;;;;;17.41;43.89;98488.19;7053836;28;20228;-78
2023/03/22 07:20:55;;;;;;;4.53;4.13;;;;;;;18.14;43.03;98496.50;7052956;28;20204;-79
2023/03/22 07:24:17;;;;;;;6.87;5.53;;;;;;;17.88;43.89;98496.56;7053334;28;20614;-77
2023/03/22 07:27:40;;;;;;;7.00;5.13;;;;;;;17.97;43.49;98487.63;7060406;27;20199;-78
2023/03/22 07:31:02;;;;;;;6.07;5.03;;;;;;;18.21;43.69;98494.38;7080383;27;20344;-78
2023/03/22 07:34:23;;;;;;;6.67;4.17;;;;;;;19.41;41.15;98478.69;7082713;27;20287;-78
2023/03/22 07:37:45;;;;;;;4.03;3.30;;;;;;;19.40;40.06;98449.69;7086925;28;20231;-78
2023/03/22 07:41:06;;;;;;;3.90;3.50;;;;;;;19.11;40.67;98478.56;7084164;28;20223;-79
2023/03/22 07:44:29;;;;;;;4.97;3.00;;;;;;;19.28;40.58;98486.59;7084577;28;20246;-80
2023/03/22 07:47:51;;;;;;;3.27;2.97;;;;;;;18.82;39.93;98484.72;7084925;28;20940;-78
2023/03/22 07:51:12;;;;;;;4.10;3.30;;;;;;;18.66;40.14;98489.28;7087372;28;20709;-78
2023/03/22 07:54:37;;;;;;;5.13;3.23;;;;;;;18.33;41.55;98486.84;7079466;28;20200;-77
2023/03/22 07:57:59;;;;;;;3.03;2.70;;;;;;;18.70;40.12;98484.91;7079481;28;20291;-77
2023/03/22 08:01:23;;;;;;;3.40;2.57;;;;;;;19.51;38.96;98481.44;7079158;28;20318;-79
2023/03/22 08:04:45;;;;;;;5.20;2.90;;;;;;;19.54;36.96;98483.66;7075081;28;20205;-81
2023/03/22 08:08:06;;;;;;;2.77;2.57;;;;;;;18.89;38.18;98477.94;7078124;28;20211;-79
2023/03/22 08:11:28;;;;;;;5.00;2.90;;;;;;;19.87;35.20;98483.16;7051037;28;20370;-80
2023/03/22 08:14:51;;;;;;;3.20;2.73;;;;;;;20.45;36.38;98488.09;7052045;28;20206;-79
2023/03/22 08:18:14;;;;;;;3.50;2.60;;;;;;;20.53;35.38;98493.03;7059289;28;20693;-79
2023/03/22 08:21:36;;;;;;;4.90;2.90;;;;;;;20.77;35.01;98485.88;7051004;28;20365;-78
2023/03/22 08:24:57;;;;;;;4.87;2.70;;;;;;;20.43;36.32;98482.09;7051152;28;20208;-79
2023/03/22 08:28:19;;;;;;;2.20;2.00;;;;;;;19.99;35.53;98496.59;7064428;28;20759;-79
2023/03/22 08:31:40;;;;;;;1.90;1.70;;;;;;;21.24;33.05;98491.78;7050288;28;20232;-78
2023/03/22 08:35:04;;;;;;;1.70;1.60;;;;;;;21.75;31.89;98493.16;7050978;28;20208;-79
2023/03/22 08:38:25;;;;;;;1.90;1.80;;;;;;;21.31;31.16;98487.59;7050557;28;20569;-79
2023/03/22 08:41:47;;;;;;;3.43;2.00;;;;;;;21.13;31.73;98490.97;7063165;28;20284;-79
2023/03/22 08:45:09;;;;;;;2.70;1.77;;;;;;;21.75;32.11;98476.69;7075416;27;20205;-79
2023/03/22 08:48:31;;;;;;;1.77;1.60;;;;;;;21.49;31.91;98478.72;7065079;27;20274;-79
2023/03/22 08:51:53;;;;;;;1.80;1.70;;;;;;;21.10;32.55;98471.53;7105708;27;20225;-80
2023/03/22 08:55:16;;;;;;;2.60;1.60;;;;;;;21.91;32.19;98476.31;7096297;27;20344;-79
2023/03/22 08:58:37;;;;;;;3.27;1.77;;;;;;;22.21;30.79;98477.97;7083327;27;20222;-79
2023/03/22 09:01:59;;;;;;;2.57;2.00;;;;;;;22.71;30.37;98456.38;7081948;27;20302;-79
2023/03/22 09:05:20;;;;;;;2.70;1.63;;;;;;;23.00;30.13;98464.56;7081893;27;20220;-78
2023/03/22 09:08:43;;;;;;;2.17;1.80;;;;;;;22.43;30.83;98470.94;7083214;27;20205;-79
2023/03/22 09:12:05;;;;;;;2.10;1.70;;;;;;;22.67;31.25;98463.53;7052559;27;20700;-79
2023/03/22 09:15:27;;;;;;;2.03;1.60;;;;;;;22.68;30.97;98467.13;7062413;27;20217;-80
2023/03/22 09:18:48;;;;;;;2.10;1.70;;;;;;;23.00;30.64;98459.88;7079229;27;20272;-76
2023/03/22 09:22:10;;;;;;;3.03;2.07;;;;;;;22.38;31.04;98454.50;7082493;27;20293;-76
2023/03/22 09:25:33;;;;;;;2.00;1.80;;;;;;;23.03;30.97;98445.56;7085469;27;20302;-84
2023/03/22 09:28:54;;;;;;;19.77;13.03;;;;;;;23.48;30.78;98442.22;7077571;27;20265;-77
2023/03/22 09:32:16;;;;;;;2.33;2.10;;;;;;;22.79;31.67;98454.91;7073452;27;20223;-78
2023/03/22 09:35:41;;;;;;;3.23;1.90;;;;;;;22.20;32.84;98446.94;7083431;27;20201;-81
2023/03/22 09:39:05;;;;;;;3.70;2.27;;;;;;;23.25;31.74;98443.09;7089653;27;20213;-78
2023/03/22 09:42:32;;;;;;;3.20;2.13;;;;;;;22.77;30.98;98438.72;7085722;27;20368;-77
2023/03/22 09:45:54;;;;;;;2.00;1.90;;;;;;;21.92;32.33;98431.28;7081591;27;20273;-77
2023/03/22 09:49:18;;;;;;;3.50;1.97;;;;;;;22.48;32.85;98428.88;7082548;27;20293;-77
2023/03/22 09:52:42;;;;;;;2.17;1.70;;;;;;;22.66;31.18;98417.94;7074616;27;20366;-77
2023/03/22 09:56:09;;;;;;;2.43;1.53;;;;;;;22.59;32.00;98431.22;7082097;27;20322;-78
2023/03/22 09:59:38;;;;;;;2.20;2.00;;;;;;;23.07;31.74;98418.28;7080100;27;20264;-79
2023/03/22 10:03:07;;;;;;;2.53;1.40;;;;;;;22.79;30.69;98410.94;7074953;27;20215;-78
2023/03/22 10:06:30;;;;;;;3.27;1.87;;;;;;;23.12;30.84;98404.47;7074736;27;20207;-78
2023/03/22 10:09:59;;;;;;;1.90;1.70;;;;;;;23.33;30.24;98417.69;7080404;27;20200;-78
2023/03/22 10:13:24;;;;;;;2.63;1.57;;;;;;;23.63;29.41;98399.91;7081064;27;20280;-78
2023/03/22 10:16:48;;;;;;;1.73;1.47;;;;;;;23.37;30.22;98399.44;7081176;27;20209;-80
2023/03/22 10:20:19;;;;;;;2.20;2.00;;;;;;;23.28;29.72;98387.50;7079299;27;20253;-78
2023/03/22 10:23:45;;;;;;;2.17;1.37;;;;;;;23.85;29.11;98367.06;7081346;27;20913;-78
2023/03/22 10:27:14;;;;;;;1.97;1.50;;;;;;;23.86;29.70;98368.69;7077280;27;20207;-78
2023/03/22 10:30:37;;;;;;;1.53;1.40;;;;;;;24.62;28.45;98366.25;7052552;27;20646;-78
2023/03/22 10:34:02;;;;;;;1.97;1.30;;;;;;;24.35;28.74;98355.97;7052857;28;20777;-78
2023/03/22 10:37:30;;;;;;;2.37;1.60;;;;;;;24.11;29.15;98360.84;7072994;27;20296;-77
2023/03/22 10:40:54;;;;;;;1.70;1.50;;;;;;;23.16;30.42;98361.50;7080576;27;20199;-78
2023/03/22 10:44:18;;;;;;;1.30;1.20;;;;;;;23.06;30.72;98353.41;7081408;27;20294;-77
2023/03/22 10:47:43;;;;;;;1.60;1.50;;;;;;;22.83;30.32;98360.56;7080549;27;20211;-77
2023/03/22 10:51:07;;;;;;;2.20;1.50;;;;;;;22.83;30.52;98363.31;7078267;27;20232;-77
2023/03/22 10:54:28;;;;;;;2.17;1.20;;;;;;;22.91;30.96;98361.84;7081259;27;20269;-78
2023/03/22 10:57:56;;;;;;;1.47;1.37;;;;;;;23.92;30.02;98354.56;7081758;27;20219;-78
2023/03/22 11:01:26;;;;;;;3.10;1.50;;;;;;;23.74;29.32;98327.88;7063203;27;20758;-78
2023/03/22 11:04:49;;;;;;;1.30;1.30;;;;;;;24.73;27.72;98351.94;7057124;28;20241;-77
2023/03/22 11:08:14;;;;;;;2.50;1.63;;;;;;;24.59;27.54;98345.63;7082125;27;20205;-82
2023/03/22 11:11:39;;;;;;;1.43;1.30;;;;;;;24.59;28.15;98342.84;7085663;27;20222;-83
2023/03/22 11:15:00;;;;;;;1.50;1.40;;;;;;;24.13;28.80;98355.84;7085932;27;20263;-79
2023/03/22 11:18:22;;;;;;;1.70;1.60;;;;;;;23.36;29.59;98339.25;7085210;27;20268;-78
2023/03/22 11:21:45;;;;;;;3.33;2.43;;;;;;;24.14;29.17;98340.13;7074248;27;20316;-78
2023/03/22 11:25:14;;;;;;;2.17;1.70;;;;;;;24.23;28.91;98339.13;7058804;28;20350;-79
2023/03/22 11:28:37;;;;;;;2.87;1.83;;;;;;;24.24;29.39;98328.94;7055745;28;20279;-79
2023/03/22 11:32:00;;;;;;;2.07;1.93;;;;;;;24.09;28.67;98323.69;7055866;28;20360;-84
2023/03/22 11:35:24;;;;;;;1.90;1.63;;;;;;;24.62;28.27;98302.84;7057328;28;20763;-81
2023/03/22 11:38:45;;;;;;;1.60;1.50;;;;;;;24.77;27.84;98303.31;7057984;28;20722;-80
2023/03/22 11:42:17;;;;;;;1.67;1.57;;;;;;;24.52;27.95;98305.75;7074755;28;20777;-78
2023/03/22 11:45:41;;;;;;;1.67;1.30;;;;;;;25.10;27.32;98301.22;7055079;28;20188;-80
2023/03/22 11:49:06;;;;;;;5.20;1.60;;;;;;;25.25;26.67;98292.63;7055485;28;20231;-80
2023/03/22 11:52:27;;;;;;;3.87;1.20;;;;;;;25.87;25.61;98280.56;7054253;28;20321;-77
2023/03/22 11:55:50;;;;;;;1.80;1.63;;;;;;;25.15;26.79;98287.31;7057975;28;20288;-83
2023/03/22 11:59:16;;;;;;;1.83;1.40;;;;;;;25.40;26.89;98284.78;7058941;28;20233;-79
2023/03/22 12:02:41;;;;;;;1.20;1.10;;;;;;;25.16;27.30;98286.16;7060551;28;20232;-79
2023/03/22 12:06:04;;;;;;;1.27;1.17;;;;;;;25.17;27.00;98266.56;7063389;28;20205;-79
2023/03/22 12:09:36;;;;;;;1.30;1.20;;;;;;;24.83;26.52;98271.75;7065197;28;20221;-77
2023/03/22 12:13:01;;;;;;;1.10;1.00;;;;;;;24.85;26.60;98252.97;7069210;28;20224;-78
2023/03/22 12:16:26;;;;;;;1.30;1.20;;;;;;;24.35;27.66;98251.25;7071524;27;20218;-76
2023/03/22 12:19:58;;;;;;;3.60;1.30;;;;;;;24.59;26.35;98245.56;7088664;27;20222;-77
2023/03/22 12:23:22;;;;;;;3.60;1.83;;;;;;;25.74;25.15;98229.81;7085524;27;20226;-79
2023/03/22 12:26:43;;;;;;;7.83;3.20;;;;;;;25.23;26.08;98242.41;7083347;27;20210;-77
2023/03/22 12:30:07;;;;;;;2.33;1.40;;;;;;;25.63;25.28;98244.19;7056401;28;20235;-78
2023/03/22 12:33:32;;;;;;;1.30;1.20;;;;;;;25.21;24.75;98245.50;7056653;28;20229;-78
2023/03/22 12:36:56;;;;;;;3.00;1.77;;;;;;;25.72;22.89;98243.09;7070942;27;20203;-79
2023/03/22 12:40:23;;;;;;;0.90;0.90;;;;;;;25.07;23.21;98241.97;7083509;27;20234;-77
2023/03/22 12:43:49;;;;;;;2.87;1.23;;;;;;;25.43;23.34;98223.44;7083724;27;20800;-77
2023/03/22 12:47:17;;;;;;;1.33;1.20;;;;;;;26.22;22.97;98232.66;7084577;27;20247;-77
2023/03/22 12:50:44;;;;;;;3.37;1.80;;;;;;;25.42;26.44;98221.00;7083865;27;20246;-77
2023/03/22 12:54:06;;;;;;;2.53;1.20;;;;;;;25.09;27.89;98233.38;7060809;27;20717;-78
2023/03/22 12:57:28;;;;;;;2.10;1.47;;;;;;;24.59;28.15;98229.81;7083865;27;20235;-78
2023/03/22 13:00:52;;;;;;;2.33;1.60;;;;;;;25.31;27.62;98223.19;7077800;27;20207;-77
2023/03/22 13:04:33;;;;;;;1.97;1.60;;;;;;;25.34;27.93;98224.50;7056042;28;20630;-78
2023/03/22 13:08:02;;;;;;;3.90;1.50;;;;;;;24.75;28.32;98195.28;7068243;27;20241;-77
2023/03/22 13:11:24;;;;;;;3.03;1.80;;;;;;;25.84;28.13;98218.47;7082281;27;20227;-78
2023/03/22 13:14:58;;;;;;;3.83;2.00;;;;;;;25.02;27.79;98227.47;7083934;27;20206;-78
2023/03/22 13:18:28;;;;;;;1.60;1.50;;;;;;;24.96;28.27;98214.94;7084232;27;20228;-78
2023/03/22 13:21:49;;;;;;;2.53;1.50;;;;;;;25.08;28.55;98218.75;7084514;27;20590;-77
2023/03/22 13:25:28;;;;;;;1.63;1.53;;;;;;;25.57;27.74;98190.22;7084573;27;20292;-78
2023/03/22 13:28:57;;;;;;;2.60;1.60;;;;;;;26.27;26.74;98182.75;7077901;27;20601;-78
2023/03/22 13:32:28;;;;;;;1.73;1.63;;;;;;;25.87;26.37;98201.28;7082831;27;20335;-80
2023/03/22 13:35:53;;;;;;;1.73;1.43;;;;;;;26.16;25.77;98196.06;7060026;27;20191;-78
2023/03/22 13:39:15;;;;;;;3.57;1.40;;;;;;;25.26;24.81;98186.63;7082454;27;20231;-79
2023/03/22 13:42:40;;;;;;;2.50;1.10;;;;;;;25.09;24.08;98181.78;7081464;27;20229;-77
2023/03/22 13:46:06;;;;;;;1.53;1.43;;;;;;;24.63;24.96;98181.22;7082750;27;20208;-79
2023/03/22 13:49:46;;;;;;;1.00;1.00;;;;;;;25.57;23.53;98176.41;7074169;27;20204;-78
2023/03/22 13:53:15;;;;;;;1.47;1.17;;;;;;;24.72;23.99;98173.84;7053786;28;20312;-78
2023/03/22 13:56:51;;;;;;;1.60;1.27;;;;;;;25.42;23.65;98169.34;7054059;28;20272;-77
2023/03/22 14:00:34;;;;;;;0.93;0.93;;;;;;;25.75;24.21;98169.84;7054309;28;20680;-78
2023/03/22 14:03:57;;;;;;;2.70;1.20;;;;;;;25.35;22.99;98163.47;7065294;27;20227;-79
2023/03/22 14:07:23;;;;;;;2.20;1.60;;;;;;;25.46;23.46;98164.00;7083010;27;20207;-79
2023/03/22 14:10:46;;;;;;;3.53;1.30;;;;;;;25.70;23.17;98159.75;7081063;27;20275;-79
2023/03/22 14:14:12;;;;;;;1.40;1.30;;;;;;;25.66;24.15;98158.75;7082116;27;20283;-79
2023/03/22 14:17:39;;;;;;;2.17;1.13;;;;;;;26.38;23.28;98145.38;7081837;27;20274;-79
2023/03/22 14:21:03;;;;;;;1.43;1.33;;;;;;;26.47;22.75;98138.72;7082987;27;20230;-80
2023/03/22 14:24:25;;;;;;;1.63;1.20;;;;;;;25.98;22.58;98135.53;7086142;27;20298;-80
2023/03/22 14:27:47;;;;;;;1.53;1.40;;;;;;;25.75;23.08;98132.00;7081584;27;20210;-80
2023/03/22 14:31:14;;;;;;;1.00;1.00;;;;;;;25.93;22.04;98130.97;7080722;27;20284;-79
2023/03/22 14:34:40;;;;;;;2.60;1.40;;;;;;;25.66;22.42;98133.91;7081521;27;20187;-79
2023/03/22 14:38:02;;;;;;;1.30;1.20;;;;;;;26.05;22.70;98128.41;7082009;27;20192;-79
2023/03/22 14:41:25;;;;;;;2.80;1.30;;;;;;;26.17;22.70;98116.72;7054915;27;20228;-79
2023/03/22 14:44:48;;;;;;;0.93;0.93;;;;;;;25.56;22.86;98127.84;7052799;28;20204;-79
2023/03/22 14:48:14;;;;;;;3.47;1.20;;;;;;;25.35;22.89;98112.97;7052726;28;20219;-79
2023/03/22 14:51:39;;;;;;;1.80;1.30;;;;;;;25.22;23.44;98114.66;7051554;28;20321;-79
2023/03/22 14:55:03;;;;;;;1.10;1.10;;;;;;;25.17;23.21;98111.22;7052899;28;20660;-84
2023/03/22 14:58:30;;;;;;;2.60;1.23;;;;;;;25.19;23.29;98117.25;7054729;28;20227;-80
2023/03/22 15:01:55;;;;;;;1.30;1.20;;;;;;;25.25;22.75;98125.09;7059709;27;20342;-81
2023/03/22 15:05:18;;;;;;;1.43;1.33;;;;;;;25.00;23.38;98133.16;7082465;27;20205;-81
2023/03/22 15:08:45;;;;;;;2.00;1.40;;;;;;;25.19;23.64;98125.53;7082234;27;20270;-81
2023/03/22 15:12:07;;;;;;;1.30;1.10;;;;;;;25.04;23.00;98118.44;7081181;27;20224;-81
2023/03/22 15:15:33;;;;;;;1.13;1.07;;;;;;;25.23;23.42;98119.06;7078766;27;20201;-81
2023/03/22 15:18:55;;;;;;;1.30;1.30;;;;;;;25.08;23.39;98111.16;7053085;28;20205;-81
2023/03/22 15:22:18;;;;;;;1.77;1.40;;;;;;;25.38;22.91;98084.75;7052391;28;20224;-81
2023/03/22 15:25:42;;;;;;;2.13;1.30;;;;;;;24.76;23.71;98105.91;7052799;28;20273;-81
2023/03/22 15:29:06;;;;;;;1.43;1.30;;;;;;;24.98;23.39;98096.81;7052087;28;20585;-81
2023/03/22 15:32:28;;;;;;;1.27;1.20;;;;;;;24.96;24.02;98104.59;7052842;28;20560;-81
2023/03/22 15:35:51;;;;;;;1.40;1.30;;;;;;;24.90;23.89;98105.84;7056070;27;20657;-80
2023/03/22 15:39:18;;;;;;;1.40;1.30;;;;;;;24.67;24.02;98098.72;7080924;27;20222;-80
2023/03/22 15:42:41;;;;;;;2.17;1.27;;;;;;;25.11;23.55;98098.69;7080266;28;20783;-81
2023/03/22 15:46:15;;;;;;;2.53;1.27;;;;;;;24.97;24.20;98095.19;7080172;28;20252;-81
2023/03/22 15:49:38;;;;;;;1.77;1.40;;;;;;;24.88;24.64;98094.31;7077062;28;20710;-80
2023/03/22 15:53:00;;;;;;;2.77;1.40;;;;;;;24.80;24.23;98097.81;7082151;27;20233;-80
2023/03/22 15:56:27;;;;;;;1.23;1.17;;;;;;;25.18;24.15;98093.56;7072428;27;20782;-81
2023/03/22 15:59:55;;;;;;;1.10;1.10;;;;;;;24.42;25.06;98102.84;7084866;27;20371;-80
2023/03/22 16:03:16;;;;;;;1.50;1.30;;;;;;;24.97;24.54;98093.25;7085765;27;20589;-80